Time;durP1;ratioP1;P1;durP2;ratioP2;P2;SDS_P1;SDS_P2;PMS_P1;PMS_P2;Temp;Humidity;BMP_temperature;BMP_pressure;BME280_temperature;BME280_humidity;BME280_pressure;Samples;Min_cycle;Max_cycle;Signal;HPM_P1;HPM_P2
2021/10/16 00:00:33;;;;;;;15.63;6.97;;;7.60;99.90;;;;;;2063818;28;20098;-68
2021/10/16 00:01:33;;;;;;;15.77;6.07;;;7.60;99.90;;;;;;2063742;28;20037;-68
2021/10/16 00:02:34;;;;;;;14.38;6.68;;;7.60;99.90;;;;;;2063261;28;20034;-68
2021/10/16 00:03:35;;;;;;;11.85;6.80;;;7.60;99.90;;;;;;2063724;28;20105;-68
2021/10/16 00:04:35;;;;;;;13.38;6.82;;;7.60;99.90;;;;;;2068504;28;20105;-68
2021/10/16 00:05:36;;;;;;;11.27;7.13;;;7.60;99.90;;;;;;2063909;28;20136;-68
2021/10/16 00:06:36;;;;;;;12.73;7.38;;;7.60;99.90;;;;;;2064713;28;20429;-68
2021/10/16 00:07:37;;;;;;;13.90;7.28;;;7.60;99.90;;;;;;2063497;28;20439;-68
2021/10/16 00:08:37;;;;;;;12.80;7.40;;;7.50;99.90;;;;;;2063062;28;20101;-68
2021/10/16 00:09:38;;;;;;;17.33;8.02;;;7.50;99.90;;;;;;2063549;28;20038;-68
2021/10/16 00:10:39;;;;;;;13.05;7.40;;;7.50;99.90;;;;;;2063865;28;20045;-68
2021/10/16 00:11:39;;;;;;;17.23;7.75;;;7.50;99.90;;;;;;2063490;28;20061;-68
2021/10/16 00:12:40;;;;;;;9.90;6.90;;;7.50;99.90;;;;;;2063344;28;20037;-68
2021/10/16 00:13:42;;;;;;;16.35;7.30;;;7.50;99.90;;;;;;2062645;28;20080;-68
2021/10/16 00:14:42;;;;;;;13.32;7.07;;;7.50;99.90;;;;;;2062986;28;20038;-68
2021/10/16 00:15:43;;;;;;;10.18;6.82;;;7.50;99.90;;;;;;2063546;28;20098;-68
2021/10/16 00:16:44;;;;;;;11.38;6.85;;;7.50;99.90;;;;;;2063542;28;20642;-68
2021/10/16 00:17:44;;;;;;;13.13;7.20;;;7.50;99.90;;;;;;2063303;28;20057;-68
2021/10/16 00:18:45;;;;;;;12.02;6.43;;;7.50;99.90;;;;;;2063179;28;20026;-68
2021/10/16 00:19:45;;;;;;;12.70;6.70;;;7.50;99.90;;;;;;2065240;28;20030;-68
2021/10/16 00:20:46;;;;;;;12.68;6.75;;;7.50;99.90;;;;;;2070471;28;20386;-68
2021/10/16 00:21:46;;;;;;;14.40;8.23;;;7.50;99.90;;;;;;2063707;28;20038;-68
2021/10/16 00:22:47;;;;;;;14.73;6.75;;;7.40;99.90;;;;;;2063491;28;20023;-68
2021/10/16 00:23:48;;;;;;;11.80;7.45;;;7.40;99.90;;;;;;2063114;28;20731;-68
2021/10/16 00:24:49;;;;;;;14.18;7.40;;;7.40;99.90;;;;;;2063789;28;20026;-68
2021/10/16 00:25:50;;;;;;;14.63;7.70;;;7.40;99.90;;;;;;2063131;28;20026;-68
2021/10/16 00:26:51;;;;;;;11.25;7.10;;;7.40;99.90;;;;;;2063600;28;20034;-68
2021/10/16 00:27:51;;;;;;;13.95;7.05;;;7.40;99.90;;;;;;2063394;28;20030;-68
2021/10/16 00:28:52;;;;;;;11.43;6.63;;;7.40;99.90;;;;;;2063433;28;20034;-68
2021/10/16 00:29:52;;;;;;;12.35;6.90;;;7.40;99.90;;;;;;2071264;28;20129;-68
2021/10/16 00:30:53;;;;;;;12.98;7.10;;;7.40;99.90;;;;;;2071695;28;20030;-68
2021/10/16 00:31:54;;;;;;;11.30;7.22;;;7.40;99.90;;;;;;2071429;28;20033;-68
2021/10/16 00:32:55;;;;;;;16.88;7.93;;;7.40;99.90;;;;;;2071371;28;20371;-68
2021/10/16 00:33:55;;;;;;;12.52;7.00;;;7.40;99.90;;;;;;2070669;28;20056;-68
2021/10/16 00:34:56;;;;;;;11.63;7.55;;;7.40;99.90;;;;;;2070206;28;20101;-68
2021/10/16 00:35:58;;;;;;;12.13;7.65;;;7.40;99.90;;;;;;2065299;28;20023;-68
2021/10/16 00:36:58;;;;;;;17.33;8.32;;;7.40;99.90;;;;;;2064559;28;20076;-68
2021/10/16 00:37:59;;;;;;;11.10;7.07;;;7.40;99.90;;;;;;2065340;28;20081;-68
2021/10/16 00:38:59;;;;;;;13.88;6.50;;;7.40;99.90;;;;;;2068846;28;20053;-68
2021/10/16 00:40:00;;;;;;;11.52;6.47;;;7.40;99.90;;;;;;2071621;28;20018;-68
2021/10/16 00:41:00;;;;;;;13.23;6.45;;;7.40;99.90;;;;;;2064434;28;20031;-68
2021/10/16 00:42:01;;;;;;;11.32;6.53;;;7.40;99.90;;;;;;2063251;28;20030;-68
2021/10/16 00:43:01;;;;;;;13.07;7.10;;;7.40;99.90;;;;;;2063081;28;20026;-68
2021/10/16 00:44:13;;;;;;;10.60;6.70;;;7.40;99.90;;;;;;2063623;28;20033;-68
2021/10/16 00:45:14;;;;;;;13.13;6.50;;;7.40;99.90;;;;;;2071582;28;20029;-68
2021/10/16 00:46:15;;;;;;;17.83;7.85;;;7.40;99.90;;;;;;2070347;28;20026;-68
2021/10/16 00:47:16;;;;;;;13.18;6.57;;;7.40;99.90;;;;;;2073025;28;20048;-68
2021/10/16 00:48:16;;;;;;;15.07;7.63;;;7.40;99.90;;;;;;2070541;28;20474;-68
2021/10/16 00:49:17;;;;;;;11.02;7.28;;;7.40;99.90;;;;;;2076090;28;20053;-68
2021/10/16 00:50:20;;;;;;;12.35;7.35;;;7.40;99.90;;;;;;2068851;28;20023;-68
2021/10/16 00:51:21;;;;;;;11.55;6.65;;;7.40;99.90;;;;;;2071390;28;20018;-68
2021/10/16 00:52:21;;;;;;;11.05;6.65;;;7.40;99.90;;;;;;2070420;28;20118;-68
2021/10/16 00:53:22;;;;;;;10.00;6.43;;;7.40;99.90;;;;;;2069139;28;20022;-68
2021/10/16 00:54:23;;;;;;;12.82;6.80;;;7.40;99.90;;;;;;2063640;28;20080;-69
2021/10/16 00:55:26;;;;;;;15.35;6.40;;;7.40;99.90;;;;;;2063769;28;20026;-68
2021/10/16 00:56:27;;;;;;;12.60;7.25;;;7.40;99.90;;;;;;2063562;28;20650;-68
2021/10/16 00:57:28;;;;;;;11.05;7.13;;;7.40;99.90;;;;;;2067475;28;20108;-68
2021/10/16 00:58:29;;;;;;;9.93;6.68;;;7.40;99.90;;;;;;2066430;28;20027;-68
2021/10/16 00:59:31;;;;;;;10.73;6.65;;;7.40;99.90;;;;;;2069885;28;20088;-68
2021/10/16 01:00:32;;;;;;;12.23;6.82;;;7.40;99.90;;;;;;2068603;28;20041;-68
2021/10/16 01:01:34;;;;;;;13.15;6.78;;;7.40;99.90;;;;;;2068309;28;20038;-68
2021/10/16 01:02:35;;;;;;;7.70;6.07;;;7.40;99.90;;;;;;2069028;28;20042;-68
2021/10/16 01:03:36;;;;;;;10.98;7.10;;;7.40;99.90;;;;;;2068383;28;20067;-68
2021/10/16 01:04:36;;;;;;;10.90;6.13;;;7.40;99.90;;;;;;2069676;28;20030;-68
2021/10/16 01:05:38;;;;;;;11.60;6.80;;;7.40;99.90;;;;;;2063060;28;20375;-68
2021/10/16 01:06:38;;;;;;;11.65;6.25;;;7.40;99.90;;;;;;2063387;28;20041;-68
2021/10/16 01:07:40;;;;;;;11.23;6.72;;;7.30;99.90;;;;;;2063439;28;20109;-68
2021/10/16 01:08:41;;;;;;;14.88;6.80;;;7.30;99.90;;;;;;2062937;28;20034;-68
2021/10/16 01:09:43;;;;;;;12.60;6.43;;;7.30;99.90;;;;;;2063078;28;20110;-68
2021/10/16 01:10:43;;;;;;;12.18;6.10;;;7.30;99.90;;;;;;2064202;28;20034;-68
2021/10/16 01:11:56;;;;;;;11.35;6.35;;;7.30;99.90;;;;;;2063969;28;20122;-68
2021/10/16 01:12:58;;;;;;;10.52;6.18;;;7.30;99.90;;;;;;2067735;28;20041;-68
2021/10/16 01:14:02;;;;;;;8.38;5.43;;;7.30;99.90;;;;;;2067174;28;20446;-68
2021/10/16 01:15:06;;;;;;;10.82;6.03;;;7.30;99.90;;;;;;2066009;28;20030;-68
2021/10/16 01:16:08;;;;;;;13.80;6.40;;;7.30;99.90;;;;;;2064535;28;20121;-68
2021/10/16 01:17:10;;;;;;;9.73;5.72;;;7.30;99.90;;;;;;2064771;28;20126;-68
2021/10/16 01:18:12;;;;;;;8.48;6.00;;;7.30;99.90;;;;;;2063894;28;20026;-68
2021/10/16 01:19:15;;;;;;;8.30;5.85;;;7.30;99.90;;;;;;2065629;28;20104;-68
2021/10/16 01:20:23;;;;;;;9.25;5.53;;;7.30;99.90;;;;;;2064716;28;20081;-68
2021/10/16 01:21:24;;;;;;;12.07;5.95;;;7.30;99.90;;;;;;2066946;28;20015;-68
2021/10/16 01:22:24;;;;;;;13.13;6.05;;;7.30;99.90;;;;;;2065903;28;20088;-68
2021/10/16 01:23:25;;;;;;;11.52;5.80;;;7.30;99.90;;;;;;2073139;28;20018;-68
2021/10/16 01:24:26;;;;;;;11.07;6.15;;;7.30;99.90;;;;;;2072996;28;20072;-68
2021/10/16 01:25:26;;;;;;;10.95;6.32;;;7.30;99.90;;;;;;2069479;28;20109;-68
2021/10/16 01:26:28;;;;;;;14.73;6.20;;;7.30;99.90;;;;;;2065374;28;20046;-68
2021/10/16 01:27:30;;;;;;;12.52;5.97;;;7.30;99.90;;;;;;2070034;28;20097;-68
2021/10/16 01:28:32;;;;;;;10.70;6.20;;;7.30;99.90;;;;;;2064393;28;20030;-68
2021/10/16 01:29:35;;;;;;;8.93;6.10;;;7.30;99.90;;;;;;2064511;28;20041;-68
2021/10/16 01:30:35;;;;;;;11.63;6.40;;;7.30;99.90;;;;;;2069234;28;20536;-68
2021/10/16 01:31:37;;;;;;;12.48;6.13;;;7.30;99.90;;;;;;2064692;28;20469;-68
2021/10/16 01:32:39;;;;;;;11.20;6.50;;;7.30;99.90;;;;;;2064724;28;20114;-68
2021/10/16 01:33:40;;;;;;;11.55;6.25;;;7.30;99.90;;;;;;2065040;28;20034;-69
2021/10/16 01:34:41;;;;;;;15.13;6.70;;;7.30;99.90;;;;;;2064503;28;20117;-68
2021/10/16 01:35:59;;;;;;;10.95;6.10;;;7.30;99.90;;;;;;2066637;28;20501;-68
2021/10/16 01:37:00;;;;;;;16.20;5.47;;;7.30;99.90;;;;;;2071981;28;20066;-68
2021/10/16 01:38:01;;;;;;;16.70;6.35;;;7.20;99.90;;;;;;2061307;28;20497;-68
2021/10/16 01:39:01;;;;;;;10.70;6.07;;;7.30;99.90;;;;;;2070742;28;20594;-68
2021/10/16 01:40:02;;;;;;;9.30;6.20;;;7.20;99.90;;;;;;2066095;28;20864;-68
2021/10/16 01:41:03;;;;;;;11.30;6.15;;;7.30;99.90;;;;;;2066922;28;20061;-68
2021/10/16 01:42:03;;;;;;;11.55;5.80;;;7.30;99.90;;;;;;2068254;28;20025;-68
2021/10/16 01:43:05;;;;;;;8.90;5.88;;;7.30;99.90;;;;;;2072037;28;20022;-68
2021/10/16 01:44:07;;;;;;;12.63;6.43;;;7.20;99.90;;;;;;2066442;28;20030;-68
2021/10/16 01:45:13;;;;;;;11.23;6.38;;;7.30;99.90;;;;;;2065225;28;20573;-68
2021/10/16 01:46:13;;;;;;;9.93;6.28;;;7.30;99.90;;;;;;2072723;28;20029;-68
2021/10/16 01:47:14;;;;;;;13.30;6.45;;;7.30;99.90;;;;;;2067675;28;20034;-68
2021/10/16 01:48:15;;;;;;;11.65;5.80;;;7.30;99.90;;;;;;2065170;28;20021;-68
2021/10/16 01:49:17;;;;;;;11.48;6.13;;;7.30;99.90;;;;;;2064672;28;20076;-68
2021/10/16 01:50:19;;;;;;;13.70;6.43;;;7.20;99.90;;;;;;2064704;28;20173;-68
2021/10/16 01:51:20;;;;;;;10.82;5.68;;;7.30;99.90;;;;;;2064531;28;20064;-68
2021/10/16 01:52:22;;;;;;;10.95;6.40;;;7.30;99.90;;;;;;2064796;28;20115;-68
2021/10/16 01:53:23;;;;;;;14.20;5.85;;;7.20;99.90;;;;;;2069948;28;20104;-69
2021/10/16 01:54:23;;;;;;;10.75;6.07;;;7.30;99.90;;;;;;2072464;28;20014;-68
2021/10/16 01:55:24;;;;;;;10.07;6.43;;;7.30;99.90;;;;;;2067561;28;20031;-68
2021/10/16 01:56:24;;;;;;;10.82;5.80;;;7.30;99.90;;;;;;2077743;28;20527;-68
2021/10/16 01:57:25;;;;;;;11.43;6.55;;;7.20;99.90;;;;;;2067723;28;20111;-68
2021/10/16 01:58:25;;;;;;;14.20;6.53;;;7.30;99.90;;;;;;2068521;28;20027;-68
2021/10/16 01:59:27;;;;;;;12.70;5.55;;;7.20;99.90;;;;;;2069420;28;20034;-68
2021/10/16 02:00:27;;;;;;;11.85;5.85;;;7.20;99.90;;;;;;2066139;28;20026;-68
2021/10/16 02:01:28;;;;;;;9.70;5.78;;;7.20;99.90;;;;;;2064494;28;20085;-68
2021/10/16 02:02:28;;;;;;;11.02;5.85;;;7.20;99.90;;;;;;2070546;28;20026;-68
2021/10/16 02:03:29;;;;;;;11.43;6.40;;;7.30;99.90;;;;;;2067733;28;20486;-68
2021/10/16 02:04:29;;;;;;;11.45;5.95;;;7.20;99.90;;;;;;2064828;28;20112;-68
2021/10/16 02:05:31;;;;;;;8.27;5.30;;;7.20;99.90;;;;;;2064207;28;20056;-68
2021/10/16 02:06:32;;;;;;;13.05;5.97;;;7.20;99.90;;;;;;2063855;28;20038;-68
2021/10/16 02:07:32;;;;;;;10.82;6.00;;;7.20;99.90;;;;;;2063828;28;20034;-68
2021/10/16 02:08:33;;;;;;;9.23;6.38;;;7.20;99.90;;;;;;2064052;28;20026;-68
2021/10/16 02:09:33;;;;;;;8.68;5.95;;;7.30;99.90;;;;;;2064333;28;20555;-68
2021/10/16 02:10:34;;;;;;;12.30;6.07;;;7.30;99.90;;;;;;2066949;28;20073;-68
2021/10/16 02:11:35;;;;;;;12.10;6.20;;;7.20;99.90;;;;;;2067986;28;20030;-68
2021/10/16 02:12:35;;;;;;;11.32;6.80;;;7.30;99.90;;;;;;2072560;28;20026;-68
2021/10/16 02:13:36;;;;;;;17.63;6.53;;;7.20;99.90;;;;;;2071180;28;20065;-68
2021/10/16 02:14:36;;;;;;;10.77;6.40;;;7.20;99.90;;;;;;2069602;28;20053;-68
2021/10/16 02:15:37;;;;;;;10.98;6.45;;;7.20;99.90;;;;;;2064652;28;20541;-68
2021/10/16 02:16:37;;;;;;;13.05;6.93;;;7.20;99.90;;;;;;2064326;28;20054;-68
2021/10/16 02:17:38;;;;;;;10.98;6.35;;;7.20;99.90;;;;;;2064280;28;20502;-68
2021/10/16 02:18:39;;;;;;;9.73;5.93;;;7.20;99.90;;;;;;2063953;28;20466;-68
2021/10/16 02:19:39;;;;;;;13.38;6.80;;;7.20;99.90;;;;;;2065990;28;20065;-68
2021/10/16 02:20:40;;;;;;;11.55;7.00;;;7.20;99.90;;;;;;2064230;28;20037;-69
2021/10/16 02:21:40;;;;;;;11.57;6.38;;;7.20;99.90;;;;;;2063644;28;20459;-68
2021/10/16 02:22:41;;;;;;;10.95;6.45;;;7.20;99.90;;;;;;2063704;28;20433;-68
2021/10/16 02:23:41;;;;;;;11.02;6.80;;;7.20;99.90;;;;;;2064354;28;20022;-68
2021/10/16 02:24:42;;;;;;;12.70;6.47;;;7.20;99.90;;;;;;2064365;28;20050;-68
2021/10/16 02:25:42;;;;;;;10.68;6.63;;;7.20;99.90;;;;;;2064581;28;20022;-68
2021/10/16 02:26:43;;;;;;;9.68;6.10;;;7.20;99.90;;;;;;2071667;28;20406;-68
2021/10/16 02:27:44;;;;;;;12.93;6.72;;;7.20;99.90;;;;;;2071397;28;20030;-68
2021/10/16 02:28:44;;;;;;;12.63;6.93;;;7.20;99.90;;;;;;2071675;28;20077;-68
2021/10/16 02:29:45;;;;;;;9.68;6.75;;;7.20;99.90;;;;;;2064800;28;20430;-68
2021/10/16 02:30:46;;;;;;;11.85;6.75;;;7.20;99.90;;;;;;2064309;28;20026;-68
2021/10/16 02:31:46;;;;;;;8.43;6.43;;;7.20;99.90;;;;;;2064388;28;20153;-68
2021/10/16 02:32:47;;;;;;;11.75;6.93;;;7.20;99.90;;;;;;2064433;28;20041;-68
2021/10/16 02:33:49;;;;;;;12.70;7.10;;;7.20;99.90;;;;;;2064473;28;20073;-68
2021/10/16 02:34:50;;;;;;;11.27;7.00;;;7.20;99.90;;;;;;2064164;28;20031;-68
2021/10/16 02:35:50;;;;;;;12.27;6.65;;;7.20;99.90;;;;;;2066980;28;20056;-68
2021/10/16 02:36:51;;;;;;;14.50;6.90;;;7.20;99.90;;;;;;2072520;28;20041;-68
2021/10/16 02:37:51;;;;;;;11.80;6.93;;;7.20;99.90;;;;;;2065805;28;20117;-68
2021/10/16 02:38:52;;;;;;;8.40;5.95;;;7.20;99.90;;;;;;2069796;28;20102;-68
2021/10/16 02:39:52;;;;;;;10.85;6.88;;;7.20;99.90;;;;;;2072425;28;20034;-68
2021/10/16 02:40:53;;;;;;;14.43;6.95;;;7.20;99.90;;;;;;2069012;28;20041;-68
2021/10/16 02:41:56;;;;;;;9.88;6.22;;;7.20;99.90;;;;;;2071295;28;20053;-68
2021/10/16 02:42:57;;;;;;;12.90;6.28;;;7.20;99.90;;;;;;2063988;28;20038;-68
2021/10/16 02:43:58;;;;;;;12.30;6.47;;;7.20;99.90;;;;;;2064375;28;20481;-68
2021/10/16 02:44:58;;;;;;;12.20;6.53;;;7.20;99.90;;;;;;2064371;28;20482;-68
2021/10/16 02:45:59;;;;;;;13.88;6.47;;;7.20;99.90;;;;;;2069643;28;20022;-68
2021/10/16 02:46:59;;;;;;;11.80;6.03;;;7.20;99.90;;;;;;2068895;28;20462;-69
2021/10/16 02:48:00;;;;;;;12.30;6.80;;;7.20;99.90;;;;;;2064102;28;20018;-68
2021/10/16 02:49:01;;;;;;;12.43;7.18;;;7.20;99.90;;;;;;2063410;28;20034;-68
2021/10/16 02:50:01;;;;;;;11.27;6.60;;;7.20;99.90;;;;;;2063976;28;20084;-68
2021/10/16 02:51:02;;;;;;;8.73;5.53;;;7.20;99.90;;;;;;2063774;28;20124;-68
2021/10/16 02:52:02;;;;;;;11.02;5.60;;;7.20;99.90;;;;;;2064494;28;20061;-68
2021/10/16 02:53:03;;;;;;;11.43;6.10;;;7.20;99.90;;;;;;2064277;28;20034;-68
2021/10/16 02:54:04;;;;;;;10.77;5.82;;;7.20;99.90;;;;;;2064226;28;20038;-68
2021/10/16 02:55:05;;;;;;;11.52;5.75;;;7.30;99.90;;;;;;2063920;28;20036;-68
2021/10/16 02:56:05;;;;;;;12.52;6.65;;;7.30;99.90;;;;;;2064424;28;20058;-68
2021/10/16 02:57:06;;;;;;;14.75;6.20;;;7.30;99.90;;;;;;2065240;28;20027;-68
2021/10/16 02:58:06;;;;;;;8.27;5.85;;;7.30;99.90;;;;;;2070451;28;20629;-68
2021/10/16 02:59:07;;;;;;;10.90;5.85;;;7.30;99.90;;;;;;2067597;28;20029;-69
2021/10/16 03:00:09;;;;;;;13.20;6.10;;;7.30;99.90;;;;;;2067212;28;20029;-68
2021/10/16 03:01:09;;;;;;;13.38;6.13;;;7.30;99.90;;;;;;2064265;28;20022;-68
2021/10/16 03:02:10;;;;;;;11.77;6.40;;;7.30;99.90;;;;;;2069681;28;20106;-68
2021/10/16 03:03:10;;;;;;;11.15;6.38;;;7.30;99.90;;;;;;2068059;28;20025;-68
2021/10/16 03:04:11;;;;;;;14.48;6.57;;;7.30;99.90;;;;;;2072181;28;20033;-68
2021/10/16 03:05:11;;;;;;;10.82;6.85;;;7.30;99.90;;;;;;2072051;28;20029;-68
2021/10/16 03:06:12;;;;;;;12.43;5.70;;;7.30;99.90;;;;;;2072177;28;20053;-68
2021/10/16 03:07:13;;;;;;;13.50;6.35;;;7.30;99.90;;;;;;2072366;28;20643;-68
2021/10/16 03:08:13;;;;;;;12.70;6.35;;;7.30;99.90;;;;;;2070942;28;20084;-68
2021/10/16 03:09:17;;;;;;;9.93;5.70;;;7.30;99.90;;;;;;2071076;28;20032;-68
2021/10/16 03:10:17;;;;;;;13.13;6.80;;;7.30;99.90;;;;;;2063956;28;20022;-68
2021/10/16 03:11:18;;;;;;;9.18;5.57;;;7.30;99.90;;;;;;2067325;28;20034;-68
2021/10/16 03:12:18;;;;;;;10.40;6.35;;;7.40;99.90;;;;;;2072278;28;20520;-68
2021/10/16 03:13:19;;;;;;;9.98;6.22;;;7.40;99.90;;;;;;2072252;28;20022;-69
2021/10/16 03:14:19;;;;;;;9.75;6.38;;;7.40;99.90;;;;;;2071962;28;20382;-68
2021/10/16 03:15:20;;;;;;;9.15;6.20;;;7.40;99.90;;;;;;2072540;28;20022;-68
2021/10/16 03:16:23;;;;;;;16.10;6.47;;;7.40;99.90;;;;;;2071958;28;20056;-68
2021/10/16 03:17:24;;;;;;;10.45;5.72;;;7.40;99.90;;;;;;2072112;28;20022;-68
2021/10/16 03:18:24;;;;;;;14.15;6.53;;;7.40;99.90;;;;;;2071473;28;20053;-69
2021/10/16 03:19:25;;;;;;;10.93;6.03;;;7.40;99.90;;;;;;2068524;28;20041;-68
2021/10/16 03:20:25;;;;;;;12.20;6.20;;;7.40;99.90;;;;;;2062854;28;20037;-68
2021/10/16 03:21:26;;;;;;;11.23;6.13;;;7.40;99.90;;;;;;2063463;28;20060;-68
2021/10/16 03:22:27;;;;;;;13.10;6.45;;;7.40;99.90;;;;;;2063708;28;20057;-68
2021/10/16 03:23:27;;;;;;;13.15;6.45;;;7.40;99.90;;;;;;2066684;28;20022;-68
2021/10/16 03:24:28;;;;;;;10.18;6.10;;;7.50;99.90;;;;;;2063779;28;20026;-68
2021/10/16 03:25:29;;;;;;;13.48;6.85;;;7.40;99.90;;;;;;2064216;28;20086;-68
2021/10/16 03:26:29;;;;;;;10.00;6.72;;;7.40;99.90;;;;;;2063986;28;20046;-68
2021/10/16 03:27:30;;;;;;;11.00;5.72;;;7.50;99.90;;;;;;2063951;28;20470;-68
2021/10/16 03:28:31;;;;;;;12.48;6.47;;;7.50;99.90;;;;;;2063251;28;20105;-69
2021/10/16 03:29:33;;;;;;;11.35;6.70;;;7.50;99.90;;;;;;2063981;28;20042;-68
2021/10/16 03:30:33;;;;;;;13.15;7.07;;;7.50;99.90;;;;;;2063846;28;20053;-68
2021/10/16 03:31:34;;;;;;;12.32;6.80;;;7.50;99.90;;;;;;2063702;28;20037;-68
2021/10/16 03:32:34;;;;;;;9.27;6.53;;;7.50;99.90;;;;;;2063775;28;20109;-68
2021/10/16 03:33:35;;;;;;;12.50;7.10;;;7.50;99.90;;;;;;2063511;28;20026;-68
2021/10/16 03:34:35;;;;;;;11.50;6.32;;;7.50;99.90;;;;;;2063791;28;20030;-68
2021/10/16 03:35:36;;;;;;;8.45;6.05;;;7.50;99.90;;;;;;2064302;28;20081;-68
2021/10/16 03:36:37;;;;;;;14.00;7.10;;;7.50;99.90;;;;;;2071058;28;20030;-68
2021/10/16 03:37:37;;;;;;;12.55;6.60;;;7.50;99.90;;;;;;2065334;28;20034;-68
2021/10/16 03:38:38;;;;;;;11.05;6.75;;;7.50;99.90;;;;;;2069958;28;20053;-68
2021/10/16 03:39:38;;;;;;;9.38;6.15;;;7.50;99.90;;;;;;2071649;28;20467;-68
2021/10/16 03:40:39;;;;;;;10.10;6.40;;;7.60;99.90;;;;;;2067510;28;20077;-68
2021/10/16 03:41:39;;;;;;;9.68;6.88;;;7.60;99.90;;;;;;2067189;28;20090;-68
2021/10/16 03:42:40;;;;;;;12.25;7.00;;;7.60;99.90;;;;;;2071231;28;20022;-69
2021/10/16 03:43:41;;;;;;;12.90;7.18;;;7.60;99.90;;;;;;2071632;28;20030;-69
2021/10/16 03:44:42;;;;;;;14.93;7.03;;;7.60;99.90;;;;;;2072209;28;20359;-68
2021/10/16 03:45:43;;;;;;;9.30;6.47;;;7.60;99.90;;;;;;2071810;28;20030;-68
2021/10/16 03:46:43;;;;;;;12.32;6.72;;;7.60;99.90;;;;;;2071325;28;20750;-68
2021/10/16 03:47:44;;;;;;;10.18;6.63;;;7.60;99.90;;;;;;2067993;28;20109;-68
2021/10/16 03:48:44;;;;;;;11.57;7.40;;;7.60;99.90;;;;;;2067435;28;20026;-68
2021/10/16 03:49:45;;;;;;;10.73;6.68;;;7.60;99.90;;;;;;2071070;28;20036;-68
2021/10/16 03:50:46;;;;;;;14.65;7.47;;;7.60;99.90;;;;;;2064964;28;20026;-68
2021/10/16 03:51:48;;;;;;;8.80;6.20;;;7.60;99.90;;;;;;2068351;28;20104;-68
2021/10/16 03:52:49;;;;;;;9.82;6.00;;;7.60;99.90;;;;;;2063929;28;20046;-68
2021/10/16 03:53:49;;;;;;;11.48;7.38;;;7.60;99.90;;;;;;2063464;28;20080;-68
2021/10/16 03:54:50;;;;;;;14.13;7.70;;;7.60;99.90;;;;;;2063092;28;20156;-68
2021/10/16 03:55:50;;;;;;;11.30;7.00;;;7.60;99.90;;;;;;2063086;28;20498;-68
2021/10/16 03:56:51;;;;;;;10.98;6.75;;;7.60;99.90;;;;;;2063878;28;20026;-68
2021/10/16 03:57:52;;;;;;;9.68;7.03;;;7.60;99.90;;;;;;2070841;28;20061;-68
2021/10/16 03:58:52;;;;;;;10.20;6.85;;;7.70;99.90;;;;;;2065455;28;20030;-68
2021/10/16 03:59:53;;;;;;;16.00;7.00;;;7.70;99.90;;;;;;2069287;28;20101;-68
2021/10/16 04:00:59;;;;;;;12.40;7.03;;;7.70;99.90;;;;;;2063850;28;20022;-68
2021/10/16 04:02:00;;;;;;;16.98;7.28;;;7.70;99.90;;;;;;2067555;28;20462;-68
2021/10/16 04:03:05;;;;;;;11.00;6.80;;;7.70;99.90;;;;;;2068606;28;20146;-69
2021/10/16 04:04:06;;;;;;;7.15;6.18;;;7.70;99.90;;;;;;2063880;28;20074;-68
2021/10/16 04:05:07;;;;;;;9.40;7.22;;;7.70;99.90;;;;;;2063429;28;20026;-68
2021/10/16 04:06:08;;;;;;;13.85;6.85;;;7.60;99.90;;;;;;2063485;28;20034;-68
2021/10/16 04:07:08;;;;;;;12.48;7.03;;;7.70;99.90;;;;;;2063596;28;20030;-68
2021/10/16 04:08:09;;;;;;;11.65;7.18;;;7.70;99.90;;;;;;2063156;28;20823;-68
2021/10/16 04:09:09;;;;;;;13.65;7.15;;;7.70;99.90;;;;;;2063683;28;20024;-68
2021/10/16 04:10:10;;;;;;;10.02;6.20;;;7.70;99.90;;;;;;2063473;28;20058;-68
2021/10/16 04:11:11;;;;;;;11.52;6.65;;;7.70;99.90;;;;;;2063624;28;20031;-68
2021/10/16 04:12:11;;;;;;;10.63;5.57;;;7.70;99.90;;;;;;2063578;28;20027;-68
2021/10/16 04:13:12;;;;;;;16.58;7.43;;;7.70;99.90;;;;;;2068584;28;20022;-68
2021/10/16 04:14:12;;;;;;;13.63;6.95;;;7.70;99.90;;;;;;2071631;28;20013;-68
2021/10/16 04:15:13;;;;;;;10.73;6.93;;;7.70;99.90;;;;;;2071676;28;20014;-68
2021/10/16 04:16:14;;;;;;;12.20;6.43;;;7.70;99.90;;;;;;2071654;28;20030;-68
2021/10/16 04:17:14;;;;;;;9.00;6.22;;;7.70;99.90;;;;;;2071097;28;20370;-68
2021/10/16 04:18:15;;;;;;;9.35;5.88;;;7.80;99.90;;;;;;2064464;28;20037;-68
2021/10/16 04:19:15;;;;;;;9.15;6.20;;;7.80;99.90;;;;;;2064813;28;20474;-68
2021/10/16 04:20:16;;;;;;;10.77;6.78;;;7.80;99.90;;;;;;2071141;28;20089;-68
2021/10/16 04:21:16;;;;;;;11.30;6.15;;;7.80;99.90;;;;;;2066737;28;20485;-69
2021/10/16 04:22:17;;;;;;;14.40;7.78;;;7.80;99.90;;;;;;2063721;28;20054;-68
2021/10/16 04:23:18;;;;;;;15.02;7.57;;;7.80;99.90;;;;;;2063436;28;21010;-68
2021/10/16 04:24:19;;;;;;;12.13;6.65;;;7.80;99.90;;;;;;2063647;28;20509;-68
2021/10/16 04:25:19;;;;;;;13.82;6.53;;;7.80;99.90;;;;;;2063390;28;20030;-68
2021/10/16 04:26:20;;;;;;;14.50;7.28;;;7.80;99.90;;;;;;2063765;28;20022;-69
2021/10/16 04:27:23;;;;;;;13.35;8.23;;;7.80;99.90;;;;;;2063135;28;20427;-69
2021/10/16 04:28:24;;;;;;;13.20;7.25;;;7.80;99.90;;;;;;2062871;28;20022;-69
2021/10/16 04:29:24;;;;;;;12.25;6.70;;;7.80;99.90;;;;;;2063209;28;20037;-68
2021/10/16 04:30:25;;;;;;;15.48;7.10;;;7.80;99.90;;;;;;2066073;28;20026;-69
2021/10/16 04:31:26;;;;;;;11.02;6.57;;;7.90;99.90;;;;;;2063641;28;20042;-69
2021/10/16 04:32:26;;;;;;;12.63;7.00;;;7.90;99.90;;;;;;2063466;28;20022;-68
2021/10/16 04:33:27;;;;;;;10.82;7.10;;;7.90;99.90;;;;;;2063315;28;20068;-69
2021/10/16 04:34:27;;;;;;;10.63;6.82;;;7.90;99.90;;;;;;2071521;28;20049;-69
2021/10/16 04:35:28;;;;;;;10.93;6.53;;;7.90;99.90;;;;;;2069343;28;20026;-69
2021/10/16 04:36:30;;;;;;;12.02;7.57;;;7.90;99.90;;;;;;2069460;28;20032;-69
2021/10/16 04:37:30;;;;;;;9.73;6.95;;;7.90;99.90;;;;;;2066342;28;20029;-69
2021/10/16 04:38:31;;;;;;;15.00;7.22;;;7.90;99.90;;;;;;2069177;28;20022;-69
2021/10/16 04:39:31;;;;;;;18.52;7.72;;;7.90;99.90;;;;;;2069616;28;20037;-69
2021/10/16 04:40:32;;;;;;;12.57;7.28;;;7.90;99.90;;;;;;2068204;28;20061;-69
2021/10/16 04:41:36;;;;;;;12.93;7.20;;;7.90;99.90;;;;;;2063491;28;20034;-69
2021/10/16 04:42:37;;;;;;;12.35;6.97;;;7.90;99.90;;;;;;2070588;28;20025;-69
2021/10/16 04:43:41;;;;;;;9.75;6.60;;;8.00;99.90;;;;;;2071270;28;20030;-69
2021/10/16 04:44:42;;;;;;;12.32;6.25;;;8.00;99.90;;;;;;2070756;28;20067;-69
2021/10/16 04:45:45;;;;;;;11.38;6.60;;;8.00;99.90;;;;;;2065571;28;20053;-69
2021/10/16 04:46:46;;;;;;;11.55;5.75;;;8.00;99.90;;;;;;2067973;28;20365;-69
2021/10/16 04:47:47;;;;;;;13.73;7.05;;;8.00;99.90;;;;;;2064182;28;20027;-69
2021/10/16 04:48:47;;;;;;;12.82;6.57;;;8.00;99.90;;;;;;2066629;28;20026;-69
2021/10/16 04:49:48;;;;;;;10.68;6.28;;;8.00;99.90;;;;;;2063320;28;20034;-69
2021/10/16 04:50:48;;;;;;;10.80;6.13;;;8.00;99.90;;;;;;2062835;28;20084;-68
2021/10/16 04:51:49;;;;;;;13.45;7.40;;;8.00;99.90;;;;;;2063375;28;20034;-68
2021/10/16 04:52:49;;;;;;;12.25;7.35;;;8.00;99.90;;;;;;2063639;28;20105;-69
2021/10/16 04:53:50;;;;;;;14.27;6.95;;;8.00;99.90;;;;;;2063408;28;20096;-69
2021/10/16 04:54:50;;;;;;;11.60;6.80;;;8.00;99.90;;;;;;2063331;28;20117;-69
2021/10/16 04:55:52;;;;;;;11.70;6.28;;;8.10;99.90;;;;;;2063239;28;20537;-69
2021/10/16 04:56:52;;;;;;;11.15;6.15;;;8.10;99.90;;;;;;2063369;28;20026;-69
2021/10/16 04:57:53;;;;;;;9.73;6.57;;;8.10;99.90;;;;;;2067769;28;20033;-69
2021/10/16 04:58:53;;;;;;;9.27;6.78;;;8.10;99.90;;;;;;2068386;28;20516;-69
2021/10/16 04:59:54;;;;;;;13.30;7.05;;;8.10;99.90;;;;;;2065695;28;20141;-69
2021/10/16 05:00:55;;;;;;;10.82;6.43;;;8.10;99.90;;;;;;2071536;28;20501;-69
2021/10/16 05:01:56;;;;;;;13.15;6.68;;;8.10;99.90;;;;;;2070659;28;20397;-69
2021/10/16 05:02:56;;;;;;;12.55;6.65;;;8.10;99.90;;;;;;2070769;28;20030;-69
2021/10/16 05:03:57;;;;;;;12.00;7.57;;;8.10;99.90;;;;;;2063277;28;20088;-69
2021/10/16 05:04:57;;;;;;;12.70;6.68;;;8.10;99.90;;;;;;2063343;28;20032;-69
2021/10/16 05:05:58;;;;;;;8.70;5.90;;;8.10;99.90;;;;;;2063589;28;20072;-69
2021/10/16 05:06:59;;;;;;;14.70;7.07;;;8.10;99.90;;;;;;2064489;28;20084;-69
2021/10/16 05:07:59;;;;;;;10.35;6.38;;;8.10;99.90;;;;;;2063267;28;20101;-69
2021/10/16 05:09:00;;;;;;;10.55;6.40;;;8.10;99.90;;;;;;2062583;28;20081;-69
2021/10/16 05:10:02;;;;;;;11.80;6.22;;;8.10;99.90;;;;;;2068356;28;20409;-69
2021/10/16 05:11:03;;;;;;;12.88;6.22;;;8.10;99.90;;;;;;2071206;28;20046;-69
2021/10/16 05:12:04;;;;;;;10.00;5.55;;;8.20;99.90;;;;;;2070872;28;20030;-69
2021/10/16 05:13:05;;;;;;;11.50;6.28;;;8.10;99.90;;;;;;2067764;28;20042;-69
2021/10/16 05:14:06;;;;;;;10.90;6.70;;;8.20;99.90;;;;;;2063435;28;20050;-69
2021/10/16 05:15:07;;;;;;;11.38;5.95;;;8.20;99.90;;;;;;2063008;28;20026;-69
2021/10/16 05:16:08;;;;;;;10.00;6.28;;;8.20;99.90;;;;;;2063522;28;20179;-69
2021/10/16 05:17:09;;;;;;;11.13;6.50;;;8.20;99.90;;;;;;2063301;28;20038;-69
2021/10/16 05:18:10;;;;;;;13.60;7.50;;;8.20;99.90;;;;;;2063927;28;20529;-69